createdAt,value
2017-10-30T02:37:46.605Z,0
2017-10-30T05:37:25.561Z,2
2017-10-30T05:43:26.025Z,5
2017-10-30T05:46:26.305Z,8
2017-10-30T05:48:26.485Z,10
2017-10-30T05:49:57.446Z,13
2017-10-30T05:51:26.788Z,15
2017-10-30T05:52:26.741Z,17
2017-10-30T05:52:57.743Z,20
2017-10-30T05:53:57.745Z,22
2017-10-30T05:54:26.963Z,25
2017-10-30T05:55:27.061Z,28
2017-10-30T05:55:57.920Z,30
2017-10-30T05:56:27.140Z,32
2017-10-30T05:56:58.043Z,35
2017-10-30T05:57:27.153Z,37
2017-10-30T05:57:58.089Z,40
2017-10-30T05:58:58.156Z,45
2017-10-30T05:59:27.402Z,47
2017-10-30T05:59:58.241Z,50
2017-10-30T06:00:27.429Z,52
2017-10-30T06:00:58.397Z,58
2017-10-30T06:01:27.503Z,60
2017-10-30T06:01:58.400Z,65
2017-10-30T06:02:27.591Z,67
2017-10-30T06:02:58.506Z,70
2017-10-30T06:03:27.694Z,75
2017-10-30T06:03:58.635Z,80
2017-10-30T06:04:27.706Z,83
2017-10-30T06:04:58.635Z,88
2017-10-30T06:05:27.784Z,92
2017-10-30T06:05:58.752Z,98
2017-10-30T06:06:27.875Z,103
2017-10-30T06:06:58.855Z,107
2017-10-30T06:07:27.964Z,112
2017-10-30T06:07:58.897Z,118
2017-10-30T06:08:28.098Z,122
2017-10-30T06:08:59.024Z,128
2017-10-30T06:09:28.120Z,135
2017-10-30T06:09:59.051Z,140
2017-10-30T06:10:28.210Z,145
2017-10-30T06:10:59.129Z,150
2017-10-30T06:11:28.296Z,158
2017-10-30T06:11:59.241Z,163
2017-10-30T06:12:28.395Z,167
2017-10-30T06:12:59.299Z,175
2017-10-30T06:13:28.698Z,182
2017-10-30T06:13:59.490Z,190
2017-10-30T06:14:28.509Z,197
2017-10-30T06:14:59.430Z,202
2017-10-30T06:15:28.633Z,212
2017-10-30T06:15:59.562Z,220
2017-10-30T06:16:28.668Z,227
2017-10-30T06:16:59.640Z,235
2017-10-30T06:17:28.726Z,245
2017-10-30T06:17:59.685Z,253
2017-10-30T07:03:03.135Z,1078
2017-10-30T07:03:32.254Z,1090
2017-10-30T07:04:03.310Z,1100
2017-10-30T07:04:32.506Z,1105
2017-10-30T07:07:32.651Z,1165
2017-10-30T07:08:03.916Z,1195
2017-10-30T07:08:32.771Z,1220
2017-10-30T07:09:03.578Z,1385
2017-10-30T07:09:32.788Z,1230
2017-10-30T07:10:03.640Z,1220
2017-10-30T07:10:32.847Z,1657
2017-10-30T07:11:03.708Z,1815
2017-10-30T07:11:32.862Z,2475
2017-10-30T07:12:03.799Z,2200
2017-10-30T07:16:04.429Z,1800
2017-10-30T07:16:33.289Z,1733
2017-10-30T07:17:04.262Z,2308
2017-10-30T07:17:33.432Z,3013
2017-10-30T07:18:04.781Z,3647
2017-10-30T07:18:33.451Z,5222
2017-10-30T07:19:04.391Z,3272
2017-10-30T07:19:33.560Z,4633
2017-10-30T07:20:04.437Z,4520
2017-10-30T07:22:33.846Z,3703
2017-10-30T07:23:04.735Z,3538
2017-10-30T07:23:33.912Z,4245
2017-10-30T07:24:04.790Z,4547
2017-10-30T07:24:34.003Z,5965
2017-10-30T07:25:04.892Z,5878
2017-10-30T07:25:34.097Z,5245
2017-10-30T07:26:04.982Z,6377
2017-10-30T07:29:05.243Z,6470
2017-10-30T07:29:34.386Z,6725
2017-10-30T07:34:34.811Z,7560
2017-10-30T07:46:35.811Z,9602
2017-10-30T08:09:12.687Z,12082
2017-10-30T08:09:37.595Z,12090
2017-10-30T08:10:08.516Z,12215
2017-10-30T08:10:37.686Z,12265
2017-10-30T08:11:08.574Z,12325
2017-10-30T08:11:37.664Z,12392
2017-10-30T08:12:08.616Z,12433
2017-10-30T08:12:37.830Z,12470
2017-10-30T08:13:08.731Z,12520
2017-10-30T08:13:37.818Z,12547
2017-10-30T08:14:08.811Z,12600
2017-10-30T08:14:37.942Z,12658
2017-10-30T08:15:08.864Z,12670
2017-10-30T08:15:38.008Z,12760
2017-10-30T08:16:08.972Z,12808
2017-10-30T08:16:38.127Z,12870
2017-10-30T08:17:09.020Z,12862
2017-10-30T08:17:38.172Z,12923
2017-10-30T08:18:11.738Z,12995
2017-10-30T08:18:38.304Z,13040
2017-10-30T08:19:09.229Z,13127
2017-10-30T08:19:38.388Z,13195
2017-10-30T08:20:09.264Z,13205
2017-10-30T08:33:10.370Z,14593
2017-10-30T08:34:10.538Z,14657
2017-10-30T08:34:39.580Z,14708
2017-10-30T08:37:10.656Z,14955
2017-10-30T08:40:10.892Z,15205
2017-10-30T08:40:40.104Z,15283
2017-10-30T08:41:10.997Z,15332
2017-10-30T08:45:11.279Z,15743
2017-10-30T08:45:40.992Z,15785
2017-10-30T08:48:40.699Z,16065
2017-10-30T08:49:11.653Z,16060
2017-10-30T08:49:40.996Z,16153
2017-10-30T08:50:11.708Z,16172
2017-10-30T08:50:40.834Z,16237
2017-10-30T08:51:11.786Z,16275
2017-10-30T08:51:40.909Z,16318
2017-10-30T08:52:11.920Z,16350
2017-10-30T08:52:40.990Z,16360
2017-10-30T08:53:11.945Z,16483
2017-10-30T08:53:41.104Z,16460
2017-10-30T08:54:12.085Z,16540
2017-10-30T08:54:41.223Z,16575
2017-10-30T08:55:12.068Z,16628
2017-10-30T08:55:41.249Z,16635
2017-10-30T08:56:12.206Z,16715
2017-10-30T08:56:41.327Z,16765
2017-10-30T08:57:12.268Z,16738
2017-10-30T08:57:41.450Z,16740
2017-10-30T08:58:12.336Z,16873
2017-10-30T08:58:41.501Z,16950
2017-10-30T09:01:14.202Z,17170
2017-10-30T09:02:12.715Z,17200
2017-10-30T09:02:41.886Z,17205
2017-10-30T09:03:12.838Z,17285
2017-10-30T09:03:41.916Z,17345
2017-10-30T09:04:12.837Z,17375
2017-10-30T09:09:16.004Z,17745
2017-10-30T09:09:46.005Z,17813
2017-10-30T09:10:16.998Z,17845
2017-10-30T09:10:46.983Z,17865
2017-10-30T09:11:18.006Z,17927
2017-10-30T09:11:47.066Z,18000
2017-10-30T09:12:18.088Z,18045
2017-10-30T09:12:47.154Z,18007
2017-10-30T09:13:47.292Z,18077
2017-10-30T09:14:18.277Z,18130
2017-10-30T09:14:47.349Z,18155
2017-10-30T09:15:18.344Z,18167
2017-10-30T09:16:18.440Z,18208
2017-10-30T09:16:47.522Z,18240
2017-10-30T09:20:18.690Z,18538
2017-10-30T09:20:48.845Z,18632
2017-10-30T09:21:18.855Z,18635
2017-10-30T09:21:48.937Z,18652
2017-10-30T09:22:18.781Z,18730
2017-10-30T09:22:48.739Z,18727
2017-10-30T09:23:18.799Z,18658
2017-10-30T09:23:48.856Z,18760
2017-10-30T09:24:19.233Z,18860
2017-10-30T09:24:49.331Z,18883
2017-10-30T09:25:19.343Z,18920
2017-10-30T09:25:49.352Z,18923
2017-10-30T09:26:19.313Z,18943
2017-10-30T09:26:49.397Z,18970
2017-10-30T09:27:19.417Z,19043
2017-10-30T09:27:49.417Z,19110
2017-10-30T09:28:19.447Z,19135
2017-10-30T09:28:49.503Z,19215
2017-10-30T09:29:19.443Z,19253
2017-10-30T09:29:49.516Z,19258
2017-10-30T09:30:19.532Z,19247
2017-10-30T09:30:49.515Z,19213
2017-10-30T09:31:19.568Z,19187
2017-10-30T09:31:49.573Z,19340
2017-10-30T09:32:19.597Z,19390
2017-10-30T09:32:49.574Z,19358
2017-10-30T09:33:19.594Z,19333
2017-10-30T09:33:49.628Z,19402
2017-10-30T09:34:19.621Z,19470
2017-10-30T09:34:49.664Z,19462
2017-10-30T09:35:19.932Z,19430
2017-10-30T09:35:49.690Z,19508
2017-10-30T09:36:19.708Z,19522
2017-10-30T09:36:49.711Z,19472
2017-10-30T09:37:19.738Z,19573
2017-10-30T09:37:49.751Z,19690
2017-10-30T09:38:19.779Z,19663
2017-10-30T09:38:49.852Z,19748
2017-10-30T09:39:19.804Z,19772
2017-10-30T09:39:49.829Z,19807
2017-10-30T09:40:19.863Z,19865
2017-10-30T09:40:49.856Z,19862
2017-10-30T09:41:19.883Z,19860
2017-10-30T09:41:49.896Z,19753
2017-10-30T09:42:19.918Z,19742
2017-10-30T09:42:49.960Z,19748
2017-10-30T09:43:19.969Z,19937
2017-10-30T09:43:49.982Z,19952
2017-10-30T09:44:19.998Z,19905
2017-10-30T09:44:50.026Z,19925
2017-10-30T09:45:20.149Z,19900
2017-10-30T09:45:50.058Z,20050
2017-10-30T09:48:51.222Z,20152
2017-10-30T09:49:22.311Z,20228
2017-10-30T09:49:52.282Z,20252
2017-10-30T09:50:23.338Z,20287
2017-10-30T09:50:53.302Z,20280
2017-10-30T09:51:23.261Z,20387
2017-10-30T09:51:53.357Z,20390
2017-10-30T09:52:23.337Z,20387
2017-10-30T09:52:53.350Z,20400
2017-10-30T09:53:23.406Z,20440
2017-10-30T09:53:53.423Z,20543
2017-10-30T09:54:23.403Z,20548
2017-10-30T09:54:53.455Z,20540
2017-10-30T09:55:23.447Z,20617
2017-10-30T09:55:53.480Z,20560
2017-10-30T09:56:23.529Z,20680
2017-10-30T09:56:53.540Z,20762
2017-10-30T09:57:23.557Z,20792
2017-10-30T09:57:53.604Z,20785
2017-10-30T09:58:23.545Z,20743
2017-10-30T09:58:53.580Z,20687
2017-10-30T09:59:23.583Z,20630
2017-10-30T09:59:53.636Z,20717
2017-10-30T10:00:23.689Z,20747
2017-10-30T10:00:53.674Z,20762
2017-10-30T10:01:24.695Z,20690
2017-10-30T10:01:54.647Z,20893
2017-10-30T10:02:24.659Z,20865
2017-10-30T10:02:54.767Z,20920
2017-10-30T10:03:25.715Z,20850
2017-10-30T10:03:55.736Z,20960
2017-10-30T10:04:26.767Z,21000
2017-10-30T10:04:56.803Z,20960
2017-10-30T10:05:26.836Z,21005
2017-10-30T10:05:56.810Z,20945
2017-10-30T10:06:26.859Z,20918
2017-10-30T10:06:56.884Z,20887
2017-10-30T10:07:26.886Z,21025
2017-10-30T10:07:56.908Z,20980
2017-10-30T10:08:27.871Z,21105
2017-10-30T10:08:57.971Z,21150
2017-10-30T10:09:28.896Z,21148
2017-10-30T10:09:58.904Z,21200
2017-10-30T10:10:28.960Z,21167
2017-10-30T10:10:58.948Z,21115
2017-10-30T10:11:28.999Z,21133
2017-10-30T10:11:58.998Z,21070
2017-10-30T10:12:29.027Z,21150
2017-10-30T10:12:59.048Z,21212
2017-10-30T10:13:29.050Z,21225
2017-10-30T10:13:59.073Z,21250
2017-10-30T10:14:29.083Z,21217
2017-10-30T10:14:59.105Z,21257
2017-10-30T10:15:29.135Z,21340
2017-10-30T10:15:59.165Z,21335
2017-10-30T10:16:29.206Z,21362
2017-10-30T10:16:59.178Z,21335
2017-10-30T10:17:29.239Z,21345
2017-10-30T10:17:59.267Z,21377
2017-10-30T10:18:30.288Z,21380
2017-10-30T10:19:00.768Z,21422
2017-10-30T10:19:30.326Z,21512
2017-10-30T10:20:01.014Z,21497
2017-10-30T10:20:30.298Z,21575
2017-10-30T10:21:01.117Z,21667
2017-10-30T10:21:31.405Z,21675
2017-10-30T10:22:01.388Z,21630
2017-10-30T10:22:32.419Z,21795
2017-10-30T10:23:02.445Z,21720
2017-10-30T10:23:32.422Z,21485
2017-10-30T10:24:02.475Z,21797
2017-10-30T10:24:32.499Z,21970
2017-10-30T10:25:02.464Z,22030
2017-10-30T10:25:32.541Z,22082
2017-10-30T10:26:02.514Z,21988
2017-10-30T10:26:32.560Z,21913
2017-10-30T10:27:02.598Z,21715
2017-10-30T10:27:33.601Z,17850
2017-10-30T10:28:03.562Z,21465
2017-10-30T10:28:34.649Z,22060
2017-10-30T10:29:04.597Z,22055
2017-10-30T10:29:34.629Z,21943
2017-10-30T10:30:04.627Z,22153
2017-10-30T10:30:34.647Z,22247
2017-10-30T10:31:04.679Z,22600
2017-10-30T10:31:34.690Z,22843
2017-10-30T10:32:04.757Z,23360
2017-10-30T10:32:34.733Z,23285
2017-10-30T10:33:04.742Z,22950
2017-10-30T10:33:34.799Z,22090
2017-10-30T10:34:04.765Z,21992
2017-10-30T10:34:34.797Z,19715
2017-10-30T10:35:04.805Z,22210
2017-10-30T10:35:34.830Z,22457
2017-10-30T10:36:04.909Z,22562
2017-10-30T10:36:35.930Z,22770
2017-10-30T10:37:05.934Z,23563
2017-10-30T10:37:35.950Z,24157
2017-10-30T10:38:05.969Z,24745
2017-10-30T10:38:35.977Z,24643
2017-10-30T10:39:06.018Z,24550
2017-10-30T10:39:36.015Z,24073
2017-10-30T10:40:05.982Z,23552
2017-10-30T10:40:36.040Z,23107
2017-10-30T10:41:06.080Z,23680
2017-10-30T10:41:36.081Z,21110
2017-10-30T10:42:06.120Z,16380
2017-10-30T10:42:36.120Z,23120
2017-10-30T10:43:06.140Z,23560
2017-10-30T10:43:37.108Z,23633
2017-10-30T10:44:07.110Z,23400
2017-10-30T10:44:37.483Z,22760
2017-10-30T10:45:07.495Z,22727
2017-10-30T10:45:37.532Z,22558
2017-10-30T10:46:07.543Z,22562
2017-10-30T10:46:37.520Z,22363
2017-10-30T10:47:07.594Z,22463
2017-10-30T10:47:37.637Z,22680
2017-10-30T10:48:07.571Z,23107
2017-10-30T10:48:38.732Z,23265
2017-10-30T10:49:08.642Z,23015
2017-10-30T10:49:39.069Z,22885
2017-10-30T10:50:09.083Z,22852
2017-10-30T10:50:40.078Z,22597
2017-10-30T10:51:10.331Z,23042
2017-10-30T10:51:40.121Z,23077
2017-10-30T10:52:10.107Z,22915
2017-10-30T10:52:41.120Z,22705
2017-10-30T10:53:11.128Z,22618
2017-10-30T10:53:41.158Z,22793
2017-10-30T10:54:11.238Z,22717
2017-10-30T10:54:41.226Z,22933
2017-10-30T10:55:11.252Z,23040
2017-10-30T10:55:41.243Z,22810
2017-10-30T10:56:11.279Z,23282
2017-10-30T10:56:41.325Z,7620
2017-10-30T10:57:11.318Z,23720
2017-10-30T10:57:41.312Z,23723
2017-10-30T10:58:11.336Z,24030
2017-10-30T10:58:41.379Z,24250
2017-10-30T10:59:11.380Z,24320
2017-10-30T10:59:42.376Z,24722
2017-10-30T11:00:12.451Z,24857
2017-10-30T11:00:42.462Z,24782
2017-10-30T11:01:12.498Z,25050
2017-10-30T11:01:42.448Z,24298
2017-10-30T11:02:12.507Z,23825
2017-10-30T11:02:42.535Z,23683
2017-10-30T11:03:12.542Z,23520
2017-10-30T11:03:42.560Z,23327
2017-10-30T11:04:12.535Z,20510
2017-10-30T11:04:42.603Z,18257
2017-10-30T11:05:12.575Z,23625
2017-10-30T11:05:42.591Z,24075
2017-10-30T11:06:13.127Z,24293
2017-10-30T11:06:42.636Z,24275
2017-10-30T11:07:12.671Z,24675
2017-10-30T11:07:42.679Z,24487
2017-10-30T11:08:12.706Z,24752
2017-10-30T11:08:42.713Z,25215
2017-10-30T11:09:12.798Z,25090
2017-10-30T11:09:42.810Z,24872
2017-10-30T11:10:12.756Z,24752
2017-10-30T11:10:42.774Z,24045
2017-10-30T11:11:13.057Z,25265
2017-10-30T11:11:42.898Z,25220
2017-10-30T11:12:12.851Z,25230
2017-10-30T11:12:42.850Z,24793
2017-10-30T11:13:12.869Z,24170
2017-10-30T11:13:42.926Z,6545
2017-10-30T11:14:12.952Z,5338
2017-10-30T11:14:42.935Z,5267
2017-10-30T11:15:12.950Z,24328
2017-10-30T11:15:42.968Z,6500
2017-10-30T11:16:13.008Z,25577
2017-10-30T11:16:43.997Z,24803
2017-10-30T11:17:14.017Z,11105
2017-10-30T11:17:44.047Z,6287
2017-10-30T11:18:14.053Z,7157
2017-10-30T11:18:45.131Z,5467
2017-10-30T11:19:15.119Z,7200
2017-10-30T11:19:45.171Z,6855
2017-10-30T11:20:15.186Z,24557
2017-10-30T11:20:46.148Z,24422
2017-10-30T11:21:16.233Z,5552
2017-10-30T11:21:47.246Z,5010
2017-10-30T11:22:17.197Z,4063
2017-10-30T11:22:47.311Z,3500
2017-10-30T11:23:17.300Z,3445
2017-10-30T11:23:47.306Z,3440
2017-10-30T11:24:17.595Z,3598
2017-10-30T11:24:47.378Z,4685
2017-10-30T11:25:17.487Z,4172
2017-10-30T11:25:47.411Z,4135
2017-10-30T11:26:17.435Z,4145
2017-10-30T11:26:47.466Z,4455
2017-10-30T11:27:17.488Z,22880
2017-10-30T11:27:47.506Z,23680
2017-10-30T11:28:17.511Z,23480
2017-10-30T11:28:47.515Z,3902
2017-10-30T11:29:17.496Z,3653
2017-10-30T11:29:47.558Z,3845
2017-10-30T11:30:17.559Z,22800
2017-10-30T11:30:47.610Z,21525
2017-10-30T11:31:17.648Z,22735
2017-10-30T11:31:48.598Z,22783
2017-10-30T11:32:18.657Z,22742
2017-10-30T11:32:48.633Z,3060
2017-10-30T11:33:18.676Z,3090
2017-10-30T11:33:48.662Z,3133
2017-10-30T11:34:18.670Z,3090
2017-10-30T11:34:48.695Z,3105
2017-10-30T11:35:18.746Z,3392
2017-10-30T11:35:48.738Z,4275
2017-10-30T11:36:18.827Z,5760
2017-10-30T11:36:48.769Z,4165
2017-10-30T11:37:18.776Z,9733
2017-10-30T11:37:48.799Z,22708
2017-10-30T11:38:18.816Z,22427
2017-10-30T11:38:49.828Z,10123
2017-10-30T11:39:19.929Z,22232
2017-10-30T11:39:49.896Z,3407
2017-10-30T11:40:19.872Z,22360
2017-10-30T11:40:49.900Z,3520
2017-10-30T11:41:19.964Z,2215
2017-10-30T11:41:49.923Z,2132
2017-10-30T11:42:19.952Z,2123
2017-10-30T11:42:51.024Z,2365
2017-10-30T11:43:23.921Z,21430
2017-10-30T11:43:53.036Z,2512
2017-10-30T11:44:24.065Z,2350
2017-10-30T11:44:54.192Z,3212
2017-10-30T11:45:25.152Z,21590
2017-10-30T11:45:55.111Z,21595
2017-10-30T11:46:26.123Z,21343
2017-10-30T11:46:56.114Z,21298
2017-10-30T11:47:27.121Z,21427
2017-10-30T11:47:57.172Z,16187
2017-10-30T11:48:28.147Z,21478
2017-10-30T11:48:58.134Z,20910
2017-10-30T11:49:29.108Z,2435
2017-10-30T11:49:58.247Z,21373
2017-10-30T11:50:29.213Z,21240
2017-10-30T11:50:58.309Z,11437
2017-10-30T11:51:29.302Z,21422
2017-10-30T11:51:58.357Z,21365
2017-10-30T11:52:29.397Z,21380
2017-10-30T11:52:58.440Z,21307
2017-10-30T11:53:29.497Z,21253
2017-10-30T11:53:59.494Z,21285
2017-10-30T11:54:30.507Z,21527
2017-10-30T11:55:00.581Z,21887
2017-10-30T11:55:30.517Z,21940
2017-10-30T11:56:00.544Z,22045
2017-10-30T11:56:30.558Z,22112
2017-10-30T11:57:00.796Z,21900
2017-10-30T11:57:30.589Z,22580
2017-10-30T11:58:00.753Z,22475
2017-10-30T11:58:30.653Z,22727
2017-10-30T11:59:00.650Z,22740
2017-10-30T11:59:31.654Z,22920
2017-10-30T12:00:01.697Z,23227
2017-10-30T12:00:31.688Z,23363
2017-10-30T12:01:01.750Z,23368
2017-10-30T12:01:31.724Z,23702
2017-10-30T12:02:01.778Z,23542
2017-10-30T12:02:31.770Z,23145
2017-10-30T12:03:01.785Z,21425
2017-10-30T12:03:31.813Z,23125
2017-10-30T12:04:01.822Z,23432
2017-10-30T12:04:31.865Z,23825
2017-10-30T12:05:01.903Z,23848
2017-10-30T12:05:32.904Z,23533
2017-10-30T12:06:02.931Z,23145
2017-10-30T12:06:32.910Z,22828
2017-10-30T12:07:03.052Z,22810
2017-10-30T12:07:33.939Z,22708
2017-10-30T12:08:03.955Z,22435
2017-10-30T12:08:34.971Z,22595
2017-10-30T12:09:05.010Z,22420
2017-10-30T12:09:36.084Z,22262
2017-10-30T12:10:06.033Z,22285
2017-10-30T12:10:37.036Z,22210
2017-10-30T12:11:07.047Z,20377
2017-10-30T12:11:38.065Z,6095
2017-10-30T12:12:08.097Z,22682
2017-10-30T12:12:38.104Z,22808
2017-10-30T12:13:08.127Z,12595
2017-10-30T12:13:38.187Z,4485
2017-10-30T12:14:08.150Z,4545
2017-10-30T12:14:38.188Z,20300
2017-10-30T12:15:08.241Z,4200
2017-10-30T12:15:39.274Z,3227
2017-10-30T12:16:09.246Z,3115
2017-10-30T12:16:39.277Z,3375
2017-10-30T12:17:09.312Z,4513
2017-10-30T12:17:40.340Z,5020
2017-10-30T12:18:10.355Z,3185
2017-10-30T12:18:40.331Z,3300
2017-10-30T12:19:10.337Z,3623
2017-10-30T12:19:41.343Z,3092
2017-10-30T12:20:11.419Z,3097
2017-10-30T12:20:41.462Z,3358
2017-10-30T12:21:11.429Z,3685
2017-10-30T12:21:41.437Z,3032
2017-10-30T12:22:11.484Z,3020
2017-10-30T12:22:42.473Z,3135
2017-10-30T12:23:12.468Z,3410
2017-10-30T12:23:42.504Z,13705
2017-10-30T12:24:12.517Z,4905
2017-10-30T12:24:43.561Z,3105
2017-10-30T12:25:13.573Z,2675
2017-10-30T12:25:44.612Z,2665
2017-10-30T12:26:14.591Z,2790
2017-10-30T12:26:44.651Z,3015
2017-10-30T12:27:14.657Z,3590
2017-10-30T12:27:44.671Z,12713
2017-10-30T12:28:14.663Z,4318
2017-10-30T12:28:44.687Z,16160
2017-10-30T12:29:14.702Z,4590
2017-10-30T12:29:45.678Z,3450
2017-10-30T12:30:15.698Z,3115
2017-10-30T12:30:45.723Z,2918
2017-10-30T12:31:15.764Z,2803
2017-10-30T12:31:46.760Z,3480
2017-10-30T12:32:16.772Z,10995
2017-10-30T12:32:46.803Z,3885
2017-10-30T12:33:16.830Z,3392
2017-10-30T12:33:47.904Z,7717
2017-10-30T12:34:17.883Z,19882
2017-10-30T12:34:47.876Z,19695
2017-10-30T12:35:17.886Z,19800
2017-10-30T12:35:47.961Z,19840
2017-10-30T12:36:17.980Z,20203
2017-10-30T12:36:47.998Z,14910
2017-10-30T12:37:18.387Z,4540
2017-10-30T12:37:48.045Z,18520
2017-10-30T12:38:18.054Z,9530
2017-10-30T12:38:48.077Z,4663
2017-10-30T12:39:18.146Z,20257
2017-10-30T12:39:48.126Z,19945
2017-10-30T12:40:18.126Z,19967
2017-10-30T12:40:48.155Z,17845
2017-10-30T12:41:18.172Z,4532
2017-10-30T12:41:48.156Z,4080
2017-10-30T12:42:18.196Z,4802
2017-10-30T12:42:48.211Z,19555
2017-10-30T12:43:18.231Z,19558
2017-10-30T12:43:48.263Z,19360
2017-10-30T12:44:18.294Z,19217
2017-10-30T12:44:48.296Z,19043
2017-10-30T12:45:18.313Z,18775
2017-10-30T12:45:48.272Z,18943
2017-10-30T12:46:18.357Z,18975
2017-10-30T12:46:48.338Z,18928
2017-10-30T12:47:18.367Z,18827
2017-10-30T12:47:49.383Z,18510
2017-10-30T12:48:19.399Z,15563
2017-10-30T12:48:50.436Z,18508
2017-10-30T12:49:20.559Z,13930
2017-10-30T12:49:50.536Z,18250
2017-10-30T12:50:20.425Z,18058
2017-10-30T12:50:50.550Z,18007
2017-10-30T12:51:20.541Z,17912
2017-10-30T12:51:50.542Z,17970
2017-10-30T12:52:20.593Z,18133
2017-10-30T12:52:50.613Z,18285
2017-10-30T12:53:20.637Z,2918
2017-10-30T12:53:50.648Z,2880
2017-10-30T12:54:20.731Z,2983
2017-10-30T12:54:50.687Z,3255
2017-10-30T12:55:20.658Z,3817
2017-10-30T12:55:50.747Z,19245
2017-10-30T12:56:20.744Z,19425
2017-10-30T12:56:50.766Z,19585
2017-10-30T12:57:20.753Z,19600
2017-10-30T12:57:50.808Z,19475
2017-10-30T12:58:20.770Z,19093
2017-10-30T12:58:50.867Z,19057
2017-10-30T12:59:20.883Z,18797
2017-10-30T12:59:51.833Z,18475
2017-10-30T13:00:21.858Z,18307
2017-10-30T13:00:51.872Z,18043
2017-10-30T13:01:21.888Z,17807
2017-10-30T13:01:51.920Z,17795
2017-10-30T13:02:21.950Z,17773
2017-10-30T13:02:51.977Z,17855
2017-10-30T13:03:22.142Z,18095
2017-10-30T13:03:51.986Z,18030
2017-10-30T13:04:22.049Z,6377
2017-10-30T13:04:52.071Z,6230
2017-10-30T13:05:22.044Z,5375
2017-10-30T13:05:52.125Z,5825
2017-10-30T13:06:22.092Z,14620
2017-10-30T13:06:52.186Z,5602
2017-10-30T13:07:22.125Z,4202
2017-10-30T13:07:52.156Z,11840
2017-10-30T13:08:22.231Z,12735
2017-10-30T13:08:52.240Z,14810
2017-10-30T13:09:22.256Z,13442
2017-10-30T13:09:52.237Z,11938
2017-10-30T13:10:22.276Z,3872
2017-10-30T13:10:52.260Z,9315
2017-10-30T13:11:22.341Z,3878
2017-10-30T13:11:52.300Z,3795
2017-10-30T13:12:22.394Z,4225
2017-10-30T13:12:52.399Z,7838
2017-10-30T13:13:22.384Z,14953
2017-10-30T13:13:52.427Z,6680
2017-10-30T13:14:22.460Z,14215
2017-10-30T13:14:52.464Z,16438
2017-10-30T13:15:22.464Z,7543
2017-10-30T13:15:52.575Z,4133
2017-10-30T13:16:22.505Z,3787
2017-10-30T13:16:52.581Z,4385
2017-10-30T13:17:22.550Z,11520
2017-10-30T13:17:52.638Z,3958
2017-10-30T13:18:22.616Z,3440
2017-10-30T13:18:52.621Z,3238
2017-10-30T13:19:22.619Z,3200
2017-10-30T13:19:52.630Z,3365
2017-10-30T13:20:22.681Z,4375
2017-10-30T13:20:52.677Z,4500
2017-10-30T13:21:22.734Z,3975
2017-10-30T13:21:53.747Z,3130
2017-10-30T13:22:23.754Z,2737
2017-10-30T13:22:54.727Z,2423
2017-10-30T13:23:24.763Z,2878
2017-10-30T13:23:55.755Z,2648
2017-10-30T13:24:25.786Z,2365
2017-10-30T13:24:56.818Z,2560
2017-10-30T13:25:26.839Z,2850
2017-10-30T13:25:57.828Z,13868
2017-10-30T13:26:27.894Z,5783
2017-10-30T13:26:57.873Z,12330
2017-10-30T13:27:27.870Z,13900
2017-10-30T13:27:57.886Z,12440
2017-10-30T13:28:27.912Z,3257
2017-10-30T13:28:57.924Z,15490
2017-10-30T13:29:27.940Z,13130
2017-10-30T13:29:57.964Z,15325
2017-10-30T13:30:27.976Z,15170
2017-10-30T13:30:58.005Z,14912
2017-10-30T13:31:28.082Z,8780
2017-10-30T13:31:58.038Z,11270
2017-10-30T13:32:28.056Z,14525
2017-10-30T13:32:58.098Z,14153
2017-10-30T13:33:28.086Z,3043
2017-10-30T13:33:58.124Z,2710
2017-10-30T13:34:28.158Z,2955
2017-10-30T13:34:58.199Z,14460
2017-10-30T13:35:28.157Z,14368
2017-10-30T13:35:58.258Z,14297
2017-10-30T13:36:28.210Z,14398
2017-10-30T13:36:58.248Z,14380
2017-10-30T13:37:28.315Z,14383
2017-10-30T13:37:58.329Z,14490
2017-10-30T13:38:28.306Z,14627
2017-10-30T13:38:58.385Z,14665
2017-10-30T13:39:28.449Z,14683
2017-10-30T13:39:58.397Z,14338
2017-10-30T13:40:28.420Z,9995
2017-10-30T13:40:58.462Z,14935
2017-10-30T13:41:28.432Z,15360
2017-10-30T13:41:58.498Z,14930
2017-10-30T13:42:28.540Z,15053
2017-10-30T13:42:58.511Z,4245
2017-10-30T13:43:28.552Z,14510
2017-10-30T13:43:58.536Z,14400
2017-10-30T13:44:28.613Z,12983
2017-10-30T13:44:58.632Z,14053
2017-10-30T13:45:28.602Z,13877
2017-10-30T13:45:58.608Z,9677
2017-10-30T13:46:28.672Z,3315
2017-10-30T13:46:58.644Z,2837
2017-10-30T13:47:28.652Z,2878
2017-10-30T13:47:58.755Z,3075
2017-10-30T13:48:28.715Z,3458
2017-10-30T13:48:59.799Z,13650
2017-10-30T13:49:32.716Z,13365
2017-10-30T13:50:01.809Z,11155
2017-10-30T13:50:32.834Z,13030
2017-10-30T13:51:03.012Z,12480
2017-10-30T13:51:33.927Z,12885
2017-10-30T13:52:03.910Z,7755
2017-10-30T13:52:34.925Z,10400
2017-10-30T13:53:04.907Z,7982
2017-10-30T13:53:35.949Z,2825
2017-10-30T13:54:05.978Z,2503
2017-10-30T13:54:36.916Z,2428
2017-10-30T13:55:06.890Z,2425
2017-10-30T13:55:37.899Z,2462
2017-10-30T13:56:07.881Z,2640
2017-10-30T13:56:38.951Z,3002
2017-10-30T13:57:08.934Z,12658
2017-10-30T13:57:39.884Z,12523
2017-10-30T13:58:09.892Z,12257
2017-10-30T13:58:40.911Z,12097
2017-10-30T13:59:10.868Z,11790
2017-10-30T13:59:41.914Z,11570
2017-10-30T14:00:11.927Z,11038
2017-10-30T14:00:42.875Z,10927
2017-10-30T14:01:12.862Z,2040
2017-10-30T14:01:43.890Z,1650
2017-10-30T14:02:13.854Z,1350
2017-10-30T14:02:44.901Z,1280
2017-10-30T14:03:14.935Z,1290
2017-10-30T14:03:45.851Z,1325
2017-10-30T14:04:15.858Z,1457
2017-10-30T14:04:46.863Z,1660
2017-10-30T14:05:16.829Z,1838
2017-10-30T14:05:47.856Z,1832
2017-10-30T14:06:17.861Z,1843
2017-10-30T14:06:48.831Z,2210
2017-10-30T14:07:18.851Z,8807
2017-10-30T14:07:49.855Z,10470
2017-10-30T14:08:19.813Z,10393
2017-10-30T14:08:50.840Z,9938
2017-10-30T14:09:21.062Z,10123
2017-10-30T14:09:51.822Z,8550
2017-10-30T14:10:21.839Z,7530
2017-10-30T14:10:52.814Z,4253
2017-10-30T14:11:22.809Z,4160
2017-10-30T14:11:53.814Z,5075
2017-10-30T14:12:23.845Z,1795
2017-10-30T14:12:54.852Z,2925
2017-10-30T14:13:24.785Z,4490
2017-10-30T14:13:55.798Z,3688
2017-10-30T14:14:25.777Z,4633
2017-10-30T14:14:56.834Z,3805
2017-10-30T14:15:26.825Z,3170
2017-10-30T14:15:57.786Z,3070
2017-10-30T14:16:27.766Z,3210
2017-10-30T14:16:58.779Z,3497
2017-10-30T14:17:28.746Z,4290
2017-10-30T14:17:59.821Z,5395
2017-10-30T14:18:29.869Z,6585
2017-10-30T14:19:00.758Z,7755
2017-10-30T14:19:30.772Z,8850
2017-10-30T14:20:01.755Z,9637
2017-10-30T14:20:31.738Z,9962
2017-10-30T14:21:02.766Z,9915
2017-10-30T14:21:31.843Z,9860
2017-10-30T14:22:02.877Z,9750
2017-10-30T14:22:31.912Z,9640
2017-10-30T14:23:02.960Z,9525
2017-10-30T14:23:31.995Z,9425
2017-10-30T14:24:02.994Z,8520
2017-10-30T14:24:32.119Z,9100
2017-10-30T14:25:03.068Z,7847
2017-10-30T14:25:32.170Z,4930
2017-10-30T14:26:03.185Z,4222
2017-10-30T14:26:32.283Z,5520
2017-10-30T14:27:03.273Z,3868
2017-10-30T14:27:32.357Z,4015
2017-10-30T14:28:03.292Z,3050
2017-10-30T14:28:32.421Z,3047
2017-10-30T14:29:03.412Z,2710
2017-10-30T14:29:33.505Z,3032
2017-10-30T14:30:03.459Z,4813
2017-10-30T14:30:33.498Z,3560
2017-10-30T14:31:03.489Z,2800
2017-10-30T14:31:33.527Z,7238
2017-10-30T14:32:03.569Z,7513
2017-10-30T14:32:33.529Z,7442
2017-10-30T14:33:03.625Z,6632
2017-10-30T14:33:33.612Z,6508
2017-10-30T14:34:03.580Z,6932
2017-10-30T14:34:33.619Z,4772
2017-10-30T14:35:03.624Z,6895